ENFL

Florø Airport

Florø, Norway
METAR ENFL 180520Z AUTO 08007KT 9999NDV SCT005/// OVC012/// 07/06 Q1039
Observed Flight Rules
Nov-18 @ 05:20 UTC (40 minutes ago)
Wind Clouds
80° at 7 knots
  • Scattered at 500' AGL
  • Overcast at 1,200' AGL
Temperatures Readings
Current 7°C / 45°F
Dewpoint 6°C / 43°F
Humidity 93%
Altimeter 30.68" Hg
Pressure 1039 hPa
Elevation 9
METAR ENFL 180520Z AUTO 08007KT 9999NDV SCT005/// OVC012/// 07/06 Q1039
Observed Flight Rules
Nov-18 @ 05:20 UTC
(40 minutes ago)
Wind
80° at 7 knots
Clouds
  • Scattered at 500' AGL
  • Overcast at 1,200' AGL
Temperature Dewpoint
7°C / 45°F 6°C / 43°F
Humidity Altimeter Pressure
93% 30.68" Hg 1039 hPa